sensor_id;sensor_type;location;lat;lon;timestamp;pressure;altitude;pressure_sealevel;temperature;humidity
74125;BME280;62475;52.192;5.396;2023-03-01T00:01:38;103189.81;;;-0.21;100.00
74125;BME280;62475;52.192;5.396;2023-03-01T00:04:04;103196.91;;;-0.20;100.00
74125;BME280;62475;52.192;5.396;2023-03-01T00:06:29;103200.25;;;-0.34;100.00
74125;BME280;62475;52.192;5.396;2023-03-01T00:08:54;103199.75;;;-0.29;100.00
74125;BME280;62475;52.192;5.396;2023-03-01T00:13:45;103194.84;;;-0.34;100.00
74125;BME280;62475;52.192;5.396;2023-03-01T00:16:12;103203.13;;;-0.35;100.00
74125;BME280;62475;52.192;5.396;2023-03-01T00:18:38;103195.31;;;-0.38;100.00
74125;BME280;62475;52.192;5.396;2023-03-01T00:21:06;103197.22;;;-0.31;100.00
74125;BME280;62475;52.192;5.396;2023-03-01T00:23:31;103192.00;;;-0.24;100.00
74125;BME280;62475;52.192;5.396;2023-03-01T00:25:58;103186.63;;;-0.16;100.00
74125;BME280;62475;52.192;5.396;2023-03-01T00:28:23;103179.00;;;-0.21;100.00
74125;BME280;62475;52.192;5.396;2023-03-01T00:30:49;103185.94;;;-0.18;100.00
74125;BME280;62475;52.192;5.396;2023-03-01T00:33:14;103179.72;;;-0.11;100.00
74125;BME280;62475;52.192;5.396;2023-03-01T00:35:39;103174.31;;;-0.11;100.00
74125;BME280;62475;52.192;5.396;2023-03-01T00:38:05;103174.13;;;-0.17;100.00
74125;BME280;62475;52.192;5.396;2023-03-01T00:40:32;103169.72;;;-0.18;100.00
74125;BME280;62475;52.192;5.396;2023-03-01T00:42:57;103178.88;;;-0.11;100.00
74125;BME280;62475;52.192;5.396;2023-03-01T00:45:23;103173.94;;;-0.24;100.00
74125;BME280;62475;52.192;5.396;2023-03-01T00:47:49;103171.94;;;-0.14;100.00
74125;BME280;62475;52.192;5.396;2023-03-01T00:50:15;103179.34;;;-0.16;100.00
74125;BME280;62475;52.192;5.396;2023-03-01T00:52:40;103175.47;;;-0.21;100.00
74125;BME280;62475;52.192;5.396;2023-03-01T00:55:05;103172.25;;;-0.25;100.00
74125;BME280;62475;52.192;5.396;2023-03-01T00:57:31;103172.75;;;-0.29;100.00
74125;BME280;62475;52.192;5.396;2023-03-01T00:59:57;103169.22;;;-0.30;100.00
74125;BME280;62475;52.192;5.396;2023-03-01T01:02:22;103174.63;;;-0.30;100.00
74125;BME280;62475;52.192;5.396;2023-03-01T01:04:47;103171.41;;;-0.33;100.00
74125;BME280;62475;52.192;5.396;2023-03-01T01:07:13;103158.72;;;-0.33;100.00
74125;BME280;62475;52.192;5.396;2023-03-01T01:09:38;103157.75;;;-0.16;100.00
74125;BME280;62475;52.192;5.396;2023-03-01T01:12:04;103152.69;;;-0.27;100.00
74125;BME280;62475;52.192;5.396;2023-03-01T01:14:30;103160.59;;;-0.17;100.00
74125;BME280;62475;52.192;5.396;2023-03-01T01:16:55;103148.81;;;-0.16;100.00
74125;BME280;62475;52.192;5.396;2023-03-01T01:19:20;103145.94;;;-0.23;100.00
74125;BME280;62475;52.192;5.396;2023-03-01T01:21:46;103143.72;;;-0.27;100.00
74125;BME280;62475;52.192;5.396;2023-03-01T01:24:13;103139.81;;;-0.49;100.00
74125;BME280;62475;52.192;5.396;2023-03-01T01:26:38;103142.16;;;-0.54;100.00
74125;BME280;62475;52.192;5.396;2023-03-01T01:29:04;103135.59;;;-0.51;100.00
74125;BME280;62475;52.192;5.396;2023-03-01T01:31:29;103136.41;;;-0.59;100.00
74125;BME280;62475;52.192;5.396;2023-03-01T01:33:55;103134.72;;;-0.60;100.00
74125;BME280;62475;52.192;5.396;2023-03-01T01:36:21;103141.34;;;-0.46;100.00
74125;BME280;62475;52.192;5.396;2023-03-01T01:38:46;103138.63;;;-0.54;100.00
74125;BME280;62475;52.192;5.396;2023-03-01T01:41:12;103130.88;;;-0.49;100.00
74125;BME280;62475;52.192;5.396;2023-03-01T01:43:40;103138.28;;;-0.59;100.00
74125;BME280;62475;52.192;5.396;2023-03-01T01:48:37;103136.34;;;-0.83;100.00
74125;BME280;62475;52.192;5.396;2023-03-01T01:51:05;103128.13;;;-0.73;100.00
74125;BME280;62475;52.192;5.396;2023-03-01T01:53:32;103128.41;;;-0.76;100.00
74125;BME280;62475;52.192;5.396;2023-03-01T01:55:58;103138.56;;;-0.70;100.00
74125;BME280;62475;52.192;5.396;2023-03-01T01:58:25;103127.88;;;-0.88;100.00
74125;BME280;62475;52.192;5.396;2023-03-01T02:00:52;103124.84;;;-0.85;100.00
74125;BME280;62475;52.192;5.396;2023-03-01T02:03:19;103118.53;;;-0.68;100.00
74125;BME280;62475;52.192;5.396;2023-03-01T02:05:56;103123.50;;;-0.89;100.00
74125;BME280;62475;52.192;5.396;2023-03-01T02:08:25;103120.47;;;-0.94;100.00
74125;BME280;62475;52.192;5.396;2023-03-01T02:10:51;103122.31;;;-0.86;100.00
74125;BME280;62475;52.192;5.396;2023-03-01T02:13:17;103116.56;;;-0.99;100.00
74125;BME280;62475;52.192;5.396;2023-03-01T02:15:42;103127.28;;;-1.07;100.00
74125;BME280;62475;52.192;5.396;2023-03-01T02:18:09;103122.25;;;-1.10;100.00
74125;BME280;62475;52.192;5.396;2023-03-01T02:23:03;103118.56;;;-1.09;100.00
74125;BME280;62475;52.192;5.396;2023-03-01T02:25:34;103124.59;;;-1.07;100.00
74125;BME280;62475;52.192;5.396;2023-03-01T02:30:25;103119.22;;;-1.07;100.00
74125;BME280;62475;52.192;5.396;2023-03-01T02:32:52;103111.94;;;-1.15;100.00
74125;BME280;62475;52.192;5.396;2023-03-01T02:35:18;103104.84;;;-1.16;100.00
74125;BME280;62475;52.192;5.396;2023-03-01T02:37:44;103107.03;;;-1.20;100.00
74125;BME280;62475;52.192;5.396;2023-03-01T02:40:14;103098.38;;;-0.97;100.00
74125;BME280;62475;52.192;5.396;2023-03-01T02:42:52;103096.72;;;-1.24;100.00
74125;BME280;62475;52.192;5.396;2023-03-01T02:45:18;103101.28;;;-1.25;100.00
74125;BME280;62475;52.192;5.396;2023-03-01T02:47:43;103087.72;;;-1.41;100.00
74125;BME280;62475;52.192;5.396;2023-03-01T02:50:22;103100.19;;;-1.40;100.00
74125;BME280;62475;52.192;5.396;2023-03-01T02:52:55;103086.56;;;-1.38;100.00
74125;BME280;62475;52.192;5.396;2023-03-01T02:55:22;103088.91;;;-1.35;100.00
74125;BME280;62475;52.192;5.396;2023-03-01T02:57:48;103100.09;;;-1.56;100.00
74125;BME280;62475;52.192;5.396;2023-03-01T03:00:19;103091.66;;;-1.61;100.00
74125;BME280;62475;52.192;5.396;2023-03-01T03:02:49;103096.56;;;-1.56;100.00
74125;BME280;62475;52.192;5.396;2023-03-01T03:05:16;103087.47;;;-1.55;100.00
74125;BME280;62475;52.192;5.396;2023-03-01T03:07:43;103095.59;;;-1.47;100.00
74125;BME280;62475;52.192;5.396;2023-03-01T03:10:11;103085.00;;;-1.41;100.00
74125;BME280;62475;52.192;5.396;2023-03-01T03:12:37;103080.97;;;-1.45;100.00
74125;BME280;62475;52.192;5.396;2023-03-01T03:15:02;103086.53;;;-1.46;100.00
74125;BME280;62475;52.192;5.396;2023-03-01T03:17:33;103079.59;;;-1.49;100.00
74125;BME280;62475;52.192;5.396;2023-03-01T03:19:58;103075.97;;;-1.65;100.00
74125;BME280;62475;52.192;5.396;2023-03-01T03:22:24;103067.88;;;-1.91;100.00
74125;BME280;62475;52.192;5.396;2023-03-01T03:24:49;103073.09;;;-1.89;100.00
74125;BME280;62475;52.192;5.396;2023-03-01T03:27:14;103068.91;;;-1.92;100.00
74125;BME280;62475;52.192;5.396;2023-03-01T03:29:39;103061.34;;;-1.88;100.00
74125;BME280;62475;52.192;5.396;2023-03-01T03:32:04;103064.97;;;-1.72;100.00
74125;BME280;62475;52.192;5.396;2023-03-01T03:34:30;103056.59;;;-1.69;100.00
74125;BME280;62475;52.192;5.396;2023-03-01T03:36:55;103064.44;;;-1.75;100.00
74125;BME280;62475;52.192;5.396;2023-03-01T03:39:22;103067.44;;;-1.86;100.00
74125;BME280;62475;52.192;5.396;2023-03-01T03:41:47;103061.31;;;-1.96;100.00
74125;BME280;62475;52.192;5.396;2023-03-01T03:44:12;103059.59;;;-1.97;100.00
74125;BME280;62475;52.192;5.396;2023-03-01T03:46:37;103059.91;;;-2.00;100.00
74125;BME280;62475;52.192;5.396;2023-03-01T03:49:03;103051.31;;;-2.04;100.00
74125;BME280;62475;52.192;5.396;2023-03-01T03:51:28;103064.41;;;-2.09;100.00
74125;BME280;62475;52.192;5.396;2023-03-01T03:53:53;103064.97;;;-1.97;100.00
74125;BME280;62475;52.192;5.396;2023-03-01T03:56:18;103055.75;;;-1.95;100.00
74125;BME280;62475;52.192;5.396;2023-03-01T03:58:43;103054.75;;;-1.94;100.00
74125;BME280;62475;52.192;5.396;2023-03-01T04:01:09;103051.34;;;-1.96;100.00
74125;BME280;62475;52.192;5.396;2023-03-01T04:03:34;103055.75;;;-1.95;100.00
74125;BME280;62475;52.192;5.396;2023-03-01T04:06:00;103057.47;;;-1.86;100.00
74125;BME280;62475;52.192;5.396;2023-03-01T04:08:25;103058.34;;;-1.85;100.00
74125;BME280;62475;52.192;5.396;2023-03-01T04:10:51;103065.88;;;-1.89;100.00
74125;BME280;62475;52.192;5.396;2023-03-01T04:13:20;103057.19;;;-1.83;100.00
74125;BME280;62475;52.192;5.396;2023-03-01T04:15:46;103055.19;;;-1.81;100.00
74125;BME280;62475;52.192;5.396;2023-03-01T04:18:14;103059.41;;;-1.70;100.00
74125;BME280;62475;52.192;5.396;2023-03-01T04:20:39;103067.22;;;-1.93;100.00
74125;BME280;62475;52.192;5.396;2023-03-01T04:25:38;103063.09;;;-1.79;100.00
74125;BME280;62475;52.192;5.396;2023-03-01T04:28:07;103070.47;;;-1.81;100.00
74125;BME280;62475;52.192;5.396;2023-03-01T04:30:33;103069.09;;;-1.85;100.00
74125;BME280;62475;52.192;5.396;2023-03-01T04:33:01;103064.44;;;-2.01;100.00
74125;BME280;62475;52.192;5.396;2023-03-01T04:35:27;103066.78;;;-1.80;100.00
74125;BME280;62475;52.192;5.396;2023-03-01T04:37:53;103067.38;;;-2.12;100.00
74125;BME280;62475;52.192;5.396;2023-03-01T04:40:18;103058.13;;;-2.35;100.00
74125;BME280;62475;52.192;5.396;2023-03-01T04:42:43;103068.38;;;-2.39;100.00
74125;BME280;62475;52.192;5.396;2023-03-01T04:45:09;103067.03;;;-2.35;100.00
74125;BME280;62475;52.192;5.396;2023-03-01T04:47:43;103063.00;;;-2.39;100.00
74125;BME280;62475;52.192;5.396;2023-03-01T04:50:11;103063.25;;;-2.24;100.00
74125;BME280;62475;52.192;5.396;2023-03-01T04:52:37;103062.66;;;-2.18;100.00
74125;BME280;62475;52.192;5.396;2023-03-01T04:55:02;103050.06;;;-2.35;100.00
74125;BME280;62475;52.192;5.396;2023-03-01T04:57:28;103054.66;;;-2.28;100.00
74125;BME280;62475;52.192;5.396;2023-03-01T04:59:53;103046.97;;;-2.22;100.00
74125;BME280;62475;52.192;5.396;2023-03-01T05:02:19;103028.22;;;-2.32;100.00
74125;BME280;62475;52.192;5.396;2023-03-01T05:04:44;103027.31;;;-2.41;100.00
74125;BME280;62475;52.192;5.396;2023-03-01T05:07:09;103026.75;;;-2.26;100.00
74125;BME280;62475;52.192;5.396;2023-03-01T05:09:34;103024.75;;;-2.24;100.00
74125;BME280;62475;52.192;5.396;2023-03-01T05:11:59;103027.44;;;-2.24;100.00
74125;BME280;62475;52.192;5.396;2023-03-01T05:14:31;103022.63;;;-2.39;100.00
74125;BME280;62475;52.192;5.396;2023-03-01T05:16:56;103023.91;;;-2.25;100.00
74125;BME280;62475;52.192;5.396;2023-03-01T05:19:28;103016.59;;;-2.33;100.00
74125;BME280;62475;52.192;5.396;2023-03-01T05:21:56;103014.97;;;-2.25;100.00
74125;BME280;62475;52.192;5.396;2023-03-01T05:24:27;103012.31;;;-2.43;100.00
74125;BME280;62475;52.192;5.396;2023-03-01T05:26:52;103007.47;;;-2.40;100.00
74125;BME280;62475;52.192;5.396;2023-03-01T05:29:18;102997.94;;;-2.34;100.00
74125;BME280;62475;52.192;5.396;2023-03-01T05:31:49;103008.31;;;-2.39;100.00
74125;BME280;62475;52.192;5.396;2023-03-01T05:34:14;102995.94;;;-2.32;100.00
74125;BME280;62475;52.192;5.396;2023-03-01T05:36:40;102996.25;;;-2.35;100.00
74125;BME280;62475;52.192;5.396;2023-03-01T05:39:05;102986.47;;;-2.36;100.00
74125;BME280;62475;52.192;5.396;2023-03-01T05:41:30;102985.84;;;-2.30;100.00
74125;BME280;62475;52.192;5.396;2023-03-01T05:43:55;102987.69;;;-2.31;100.00
74125;BME280;62475;52.192;5.396;2023-03-01T05:46:20;102990.22;;;-2.29;100.00
74125;BME280;62475;52.192;5.396;2023-03-01T05:48:48;102983.69;;;-2.52;100.00
74125;BME280;62475;52.192;5.396;2023-03-01T05:51:13;102987.75;;;-2.66;100.00
74125;BME280;62475;52.192;5.396;2023-03-01T05:53:41;102979.22;;;-2.61;100.00
74125;BME280;62475;52.192;5.396;2023-03-01T05:56:06;102974.19;;;-2.64;100.00
74125;BME280;62475;52.192;5.396;2023-03-01T05:58:32;102975.63;;;-2.52;100.00
74125;BME280;62475;52.192;5.396;2023-03-01T06:00:57;102978.88;;;-2.41;100.00
74125;BME280;62475;52.192;5.396;2023-03-01T06:03:22;102982.50;;;-2.50;100.00
74125;BME280;62475;52.192;5.396;2023-03-01T06:05:48;102978.56;;;-2.38;100.00
74125;BME280;62475;52.192;5.396;2023-03-01T06:08:13;102978.09;;;-2.33;100.00
74125;BME280;62475;52.192;5.396;2023-03-01T06:10:38;102975.09;;;-2.30;100.00
74125;BME280;62475;52.192;5.396;2023-03-01T06:13:04;102977.34;;;-2.43;100.00
74125;BME280;62475;52.192;5.396;2023-03-01T06:15:29;102980.34;;;-2.46;100.00
74125;BME280;62475;52.192;5.396;2023-03-01T06:17:55;102985.28;;;-2.42;100.00
74125;BME280;62475;52.192;5.396;2023-03-01T06:20:22;102987.13;;;-2.60;100.00
74125;BME280;62475;52.192;5.396;2023-03-01T06:22:48;102986.50;;;-2.54;100.00
74125;BME280;62475;52.192;5.396;2023-03-01T06:25:15;102982.63;;;-2.59;100.00
74125;BME280;62475;52.192;5.396;2023-03-01T06:27:41;102979.13;;;-2.52;100.00
74125;BME280;62475;52.192;5.396;2023-03-01T06:30:07;102988.59;;;-2.48;100.00
74125;BME280;62475;52.192;5.396;2023-03-01T06:32:33;102979.41;;;-2.37;100.00
74125;BME280;62475;52.192;5.396;2023-03-01T06:34:58;102990.53;;;-2.32;100.00
74125;BME280;62475;52.192;5.396;2023-03-01T06:37:23;102988.19;;;-2.35;100.00
74125;BME280;62475;52.192;5.396;2023-03-01T06:39:49;102994.13;;;-2.49;100.00
74125;BME280;62475;52.192;5.396;2023-03-01T06:42:14;102994.53;;;-2.36;100.00
74125;BME280;62475;52.192;5.396;2023-03-01T06:44:39;102986.97;;;-2.15;100.00
74125;BME280;62475;52.192;5.396;2023-03-01T06:47:04;102989.72;;;-2.07;100.00
74125;BME280;62475;52.192;5.396;2023-03-01T06:49:30;102989.06;;;-2.01;100.00
74125;BME280;62475;52.192;5.396;2023-03-01T06:51:55;102995.72;;;-2.13;100.00
74125;BME280;62475;52.192;5.396;2023-03-01T06:54:20;102988.88;;;-2.33;100.00
74125;BME280;62475;52.192;5.396;2023-03-01T06:56:47;102992.25;;;-2.05;100.00
74125;BME280;62475;52.192;5.396;2023-03-01T06:59:12;102991.34;;;-1.88;100.00
74125;BME280;62475;52.192;5.396;2023-03-01T07:01:38;102970.88;;;-2.07;100.00
74125;BME280;62475;52.192;5.396;2023-03-01T07:04:03;102988.47;;;-1.87;100.00
74125;BME280;62475;52.192;5.396;2023-03-01T07:06:29;102988.84;;;-1.82;100.00
74125;BME280;62475;52.192;5.396;2023-03-01T07:08:54;102989.44;;;-1.62;100.00
74125;BME280;62475;52.192;5.396;2023-03-01T07:11:19;102982.22;;;-1.54;100.00
74125;BME280;62475;52.192;5.396;2023-03-01T07:13:44;102980.59;;;-1.39;100.00
74125;BME280;62475;52.192;5.396;2023-03-01T07:16:10;102982.31;;;-1.38;100.00
74125;BME280;62475;52.192;5.396;2023-03-01T07:18:35;102987.19;;;-1.25;100.00
74125;BME280;62475;52.192;5.396;2023-03-01T07:21:04;102986.25;;;-1.08;100.00
74125;BME280;62475;52.192;5.396;2023-03-01T07:23:29;102985.75;;;-1.03;100.00
74125;BME280;62475;52.192;5.396;2023-03-01T07:25:55;102984.38;;;-1.16;100.00
74125;BME280;62475;52.192;5.396;2023-03-01T07:28:20;102991.50;;;-0.90;100.00
74125;BME280;62475;52.192;5.396;2023-03-01T07:30:47;102988.47;;;-0.87;100.00
74125;BME280;62475;52.192;5.396;2023-03-01T07:33:14;102990.34;;;-0.56;100.00
74125;BME280;62475;52.192;5.396;2023-03-01T07:35:41;103000.78;;;-0.45;100.00
74125;BME280;62475;52.192;5.396;2023-03-01T07:38:06;102992.16;;;-0.24;100.00
74125;BME280;62475;52.192;5.396;2023-03-01T07:40:31;103005.34;;;-0.53;100.00
74125;BME280;62475;52.192;5.396;2023-03-01T07:42:57;102994.06;;;-0.65;100.00
74125;BME280;62475;52.192;5.396;2023-03-01T07:45:22;102995.91;;;-0.65;100.00
74125;BME280;62475;52.192;5.396;2023-03-01T07:47:48;102998.94;;;-0.60;100.00
74125;BME280;62475;52.192;5.396;2023-03-01T07:50:14;102992.69;;;-0.61;100.00
74125;BME280;62475;52.192;5.396;2023-03-01T07:52:40;103001.97;;;-0.55;100.00
74125;BME280;62475;52.192;5.396;2023-03-01T07:55:05;103000.63;;;-0.51;100.00
74125;BME280;62475;52.192;5.396;2023-03-01T07:57:30;103000.97;;;-0.46;100.00
74125;BME280;62475;52.192;5.396;2023-03-01T07:59:56;102998.59;;;-0.41;100.00
74125;BME280;62475;52.192;5.396;2023-03-01T08:02:21;103001.31;;;-0.33;100.00
74125;BME280;62475;52.192;5.396;2023-03-01T08:04:46;102998.41;;;-0.24;100.00
74125;BME280;62475;52.192;5.396;2023-03-01T08:07:12;103000.78;;;-0.13;100.00
74125;BME280;62475;52.192;5.396;2023-03-01T08:09:37;103004.13;;;-0.03;100.00
74125;BME280;62475;52.192;5.396;2023-03-01T08:12:03;103006.63;;;0.15;100.00
74125;BME280;62475;52.192;5.396;2023-03-01T08:14:29;103000.34;;;0.31;100.00
74125;BME280;62475;52.192;5.396;2023-03-01T08:16:54;102998.97;;;0.35;100.00
74125;BME280;62475;52.192;5.396;2023-03-01T08:19:20;102992.66;;;0.50;100.00
74125;BME280;62475;52.192;5.396;2023-03-01T08:21:45;102996.13;;;0.67;100.00
74125;BME280;62475;52.192;5.396;2023-03-01T08:24:10;102988.81;;;0.75;100.00
74125;BME280;62475;52.192;5.396;2023-03-01T08:26:36;102990.22;;;0.94;100.00
74125;BME280;62475;52.192;5.396;2023-03-01T08:29:02;102988.16;;;1.04;100.00
74125;BME280;62475;52.192;5.396;2023-03-01T08:31:32;102986.94;;;1.06;100.00
74125;BME280;62475;52.192;5.396;2023-03-01T08:33:59;102990.56;;;1.22;100.00
74125;BME280;62475;52.192;5.396;2023-03-01T08:36:25;102982.72;;;1.49;100.00
74125;BME280;62475;52.192;5.396;2023-03-01T08:38:51;102986.31;;;1.64;100.00
74125;BME280;62475;52.192;5.396;2023-03-01T08:41:17;102976.63;;;1.70;100.00
74125;BME280;62475;52.192;5.396;2023-03-01T08:43:43;102980.38;;;1.83;100.00
74125;BME280;62475;52.192;5.396;2023-03-01T08:46:09;102974.13;;;1.97;100.00
74125;BME280;62475;52.192;5.396;2023-03-01T08:48:34;102963.38;;;2.33;100.00
74125;BME280;62475;52.192;5.396;2023-03-01T08:51:10;102969.47;;;2.35;100.00
74125;BME280;62475;52.192;5.396;2023-03-01T08:53:36;102971.72;;;2.46;100.00
74125;BME280;62475;52.192;5.396;2023-03-01T08:56:01;102960.19;;;2.59;100.00
74125;BME280;62475;52.192;5.396;2023-03-01T08:58:29;102965.47;;;2.81;100.00
74125;BME280;62475;52.192;5.396;2023-03-01T09:00:56;102964.38;;;2.76;100.00
74125;BME280;62475;52.192;5.396;2023-03-01T09:03:21;102968.47;;;3.07;100.00
74125;BME280;62475;52.192;5.396;2023-03-01T09:05:47;102954.13;;;3.34;100.00
74125;BME280;62475;52.192;5.396;2023-03-01T09:08:14;102963.94;;;3.35;100.00
74125;BME280;62475;52.192;5.396;2023-03-01T09:10:39;102948.28;;;3.59;100.00
74125;BME280;62475;52.192;5.396;2023-03-01T09:13:04;102930.38;;;4.32;100.00
74125;BME280;62475;52.192;5.396;2023-03-01T09:15:29;102933.16;;;4.52;99.18
74125;BME280;62475;52.192;5.396;2023-03-01T09:17:55;102927.00;;;4.84;97.91
74125;BME280;62475;52.192;5.396;2023-03-01T09:20:20;102920.81;;;5.29;95.83
74125;BME280;62475;52.192;5.396;2023-03-01T09:22:45;102931.72;;;5.29;95.93
74125;BME280;62475;52.192;5.396;2023-03-01T09:25:15;102924.16;;;5.51;94.25
74125;BME280;62475;52.192;5.396;2023-03-01T09:27:43;102920.16;;;5.79;93.34
74125;BME280;62475;52.192;5.396;2023-03-01T09:30:08;102920.09;;;4.82;84.07
74125;BME280;62475;52.192;5.396;2023-03-01T09:32:34;102923.38;;;4.64;84.26
74125;BME280;62475;52.192;5.396;2023-03-01T09:34:59;102918.41;;;4.74;80.26
74125;BME280;62475;52.192;5.396;2023-03-01T09:37:30;102915.31;;;4.97;77.10
74125;BME280;62475;52.192;5.396;2023-03-01T09:39:55;102915.69;;;4.81;77.25
74125;BME280;62475;52.192;5.396;2023-03-01T09:42:21;102920.91;;;4.69;76.14
74125;BME280;62475;52.192;5.396;2023-03-01T09:44:51;102916.50;;;4.21;75.53
74125;BME280;62475;52.192;5.396;2023-03-01T09:47:20;102906.66;;;4.74;76.02
74125;BME280;62475;52.192;5.396;2023-03-01T09:50:33;102905.03;;;4.92;76.65
74125;BME280;62475;52.192;5.396;2023-03-01T09:52:40;102909.59;;;4.72;76.17
74125;BME280;62475;52.192;5.396;2023-03-01T09:55:10;102907.38;;;5.41;75.85
74125;BME280;62475;52.192;5.396;2023-03-01T10:02:48;102912.41;;;5.11;80.90
74125;BME280;62475;52.192;5.396;2023-03-01T10:08:26;102899.66;;;6.47;76.15
74125;BME280;62475;52.192;5.396;2023-03-01T10:10:44;102898.78;;;6.91;75.26
74125;BME280;62475;52.192;5.396;2023-03-01T10:13:19;102898.00;;;6.40;73.00
74125;BME280;62475;52.192;5.396;2023-03-01T10:15:50;102900.69;;;6.53;76.33
74125;BME280;62475;52.192;5.396;2023-03-01T10:18:20;102894.25;;;6.78;77.91
74125;BME280;62475;52.192;5.396;2023-03-01T10:20:57;102891.41;;;6.91;72.48
74125;BME280;62475;52.192;5.396;2023-03-01T10:23:29;102883.31;;;6.78;73.41
74125;BME280;62475;52.192;5.396;2023-03-01T10:28:40;102888.66;;;6.03;74.13
74125;BME280;62475;52.192;5.396;2023-03-01T10:31:13;102896.06;;;5.63;66.42
74125;BME280;62475;52.192;5.396;2023-03-01T10:33:39;102895.66;;;5.53;64.88
74125;BME280;62475;52.192;5.396;2023-03-01T10:36:07;102889.78;;;5.69;63.87
74125;BME280;62475;52.192;5.396;2023-03-01T10:38:46;102881.16;;;5.72;63.20
74125;BME280;62475;52.192;5.396;2023-03-01T10:41:12;102890.63;;;5.83;61.11
74125;BME280;62475;52.192;5.396;2023-03-01T10:51:35;102869.81;;;5.82;57.76
74125;BME280;62475;52.192;5.396;2023-03-01T10:54:01;102858.75;;;5.84;58.51
74125;BME280;62475;52.192;5.396;2023-03-01T10:56:27;102849.19;;;6.12;56.03
74125;BME280;62475;52.192;5.396;2023-03-01T10:59:04;102852.00;;;5.79;56.45
74125;BME280;62475;52.192;5.396;2023-03-01T11:01:31;102843.84;;;6.37;57.20
74125;BME280;62475;52.192;5.396;2023-03-01T11:06:32;102851.00;;;6.31;55.86
74125;BME280;62475;52.192;5.396;2023-03-01T11:08:57;102837.13;;;5.89;56.01
74125;BME280;62475;52.192;5.396;2023-03-01T11:11:37;102828.34;;;5.54;54.38
74125;BME280;62475;52.192;5.396;2023-03-01T11:14:06;102818.91;;;6.27;53.41
74125;BME280;62475;52.192;5.396;2023-03-01T11:16:33;102806.94;;;6.28;54.09
74125;BME280;62475;52.192;5.396;2023-03-01T11:19:01;102813.72;;;6.50;53.02
74125;BME280;62475;52.192;5.396;2023-03-01T11:21:29;102811.88;;;6.06;53.67
74125;BME280;62475;52.192;5.396;2023-03-01T11:23:55;102805.91;;;6.29;54.71
74125;BME280;62475;52.192;5.396;2023-03-01T11:26:23;102812.44;;;6.21;53.52
74125;BME280;62475;52.192;5.396;2023-03-01T11:28:49;102810.97;;;6.25;51.34
74125;BME280;62475;52.192;5.396;2023-03-01T11:31:15;102815.59;;;6.56;52.60
74125;BME280;62475;52.192;5.396;2023-03-01T11:33:46;102808.16;;;6.69;52.45
74125;BME280;62475;52.192;5.396;2023-03-01T11:36:16;102807.47;;;6.49;54.41
74125;BME280;62475;52.192;5.396;2023-03-01T11:38:41;102802.44;;;7.02;53.79
74125;BME280;62475;52.192;5.396;2023-03-01T11:41:08;102809.06;;;6.63;53.21
74125;BME280;62475;52.192;5.396;2023-03-01T11:43:44;102801.94;;;6.56;53.03
74125;BME280;62475;52.192;5.396;2023-03-01T11:46:22;102794.75;;;7.60;51.13
74125;BME280;62475;52.192;5.396;2023-03-01T11:51:21;102790.63;;;7.08;50.74
74125;BME280;62475;52.192;5.396;2023-03-01T11:54:01;102790.69;;;7.02;49.60
74125;BME280;62475;52.192;5.396;2023-03-01T12:04:30;102771.59;;;7.20;51.47
74125;BME280;62475;52.192;5.396;2023-03-01T12:06:57;102752.31;;;6.90;51.43
74125;BME280;62475;52.192;5.396;2023-03-01T12:22:29;102779.78;;;7.02;49.04
74125;BME280;62475;52.192;5.396;2023-03-01T12:25:08;102783.03;;;7.35;49.64
74125;BME280;62475;52.192;5.396;2023-03-01T12:27:45;102778.22;;;7.12;48.18
74125;BME280;62475;52.192;5.396;2023-03-01T12:40:20;102757.31;;;7.18;49.25
74125;BME280;62475;52.192;5.396;2023-03-01T12:42:52;102761.97;;;7.17;49.94
74125;BME280;62475;52.192;5.396;2023-03-01T12:50:51;102761.94;;;7.42;49.04
74125;BME280;62475;52.192;5.396;2023-03-01T12:53:27;102754.66;;;7.54;47.23
74125;BME280;62475;52.192;5.396;2023-03-01T12:56:39;102738.75;;;7.44;47.69
74125;BME280;62475;52.192;5.396;2023-03-01T12:58:41;102734.34;;;7.25;48.61
74125;BME280;62475;52.192;5.396;2023-03-01T13:08:58;102717.56;;;7.58;46.25
74125;BME280;62475;52.192;5.396;2023-03-01T13:11:25;102711.66;;;7.61;46.36
74125;BME280;62475;52.192;5.396;2023-03-01T13:13:50;102715.81;;;7.27;46.68
74125;BME280;62475;52.192;5.396;2023-03-01T13:16:21;102704.72;;;7.40;47.07
74125;BME280;62475;52.192;5.396;2023-03-01T13:18:47;102699.66;;;7.62;48.62
74125;BME280;62475;52.192;5.396;2023-03-01T13:21:12;102699.06;;;7.42;48.58
74125;BME280;62475;52.192;5.396;2023-03-01T13:23:38;102691.31;;;7.57;49.00
74125;BME280;62475;52.192;5.396;2023-03-01T13:28:38;102696.00;;;7.32;47.71
74125;BME280;62475;52.192;5.396;2023-03-01T13:31:04;102692.97;;;7.58;47.10
74125;BME280;62475;52.192;5.396;2023-03-01T13:35:56;102679.69;;;7.25;48.05
74125;BME280;62475;52.192;5.396;2023-03-01T13:41:08;102674.66;;;7.04;47.51
74125;BME280;62475;52.192;5.396;2023-03-01T13:43:35;102674.47;;;7.42;48.77
74125;BME280;62475;52.192;5.396;2023-03-01T13:46:02;102665.75;;;7.63;46.45
74125;BME280;62475;52.192;5.396;2023-03-01T13:48:33;102675.28;;;7.42;46.53
74125;BME280;62475;52.192;5.396;2023-03-01T13:50:59;102661.78;;;7.29;47.37
74125;BME280;62475;52.192;5.396;2023-03-01T13:53:26;102651.78;;;7.53;47.73
74125;BME280;62475;52.192;5.396;2023-03-01T13:55:59;102652.78;;;7.40;45.04
74125;BME280;62475;52.192;5.396;2023-03-01T13:58:27;102649.63;;;7.07;46.01
74125;BME280;62475;52.192;5.396;2023-03-01T14:01:03;102648.72;;;7.31;45.11
74125;BME280;62475;52.192;5.396;2023-03-01T14:03:29;102645.19;;;7.42;45.42
74125;BME280;62475;52.192;5.396;2023-03-01T14:05:59;102642.97;;;7.51;47.11
74125;BME280;62475;52.192;5.396;2023-03-01T14:08:27;102639.28;;;7.27;46.02
74125;BME280;62475;52.192;5.396;2023-03-01T14:21:21;102618.97;;;7.53;45.55
74125;BME280;62475;52.192;5.396;2023-03-01T14:23:47;102608.16;;;7.46;46.14
74125;BME280;62475;52.192;5.396;2023-03-01T14:26:13;102609.22;;;7.27;46.27